sensor_id;sensor_type;location;lat;lon;timestamp;temperature;humidity
25985;DHT22;40000;53.848;10.658;2022-08-07T00:04:45;10.30;99.90
25985;DHT22;40000;53.848;10.658;2022-08-07T00:09:46;10.20;99.90
25985;DHT22;40000;53.848;10.658;2022-08-07T00:14:47;10.20;99.90
25985;DHT22;40000;53.848;10.658;2022-08-07T00:19:47;10.10;99.90
25985;DHT22;40000;53.848;10.658;2022-08-07T00:24:48;10.00;99.90
25985;DHT22;40000;53.848;10.658;2022-08-07T00:29:49;10.00;99.90
25985;DHT22;40000;53.848;10.658;2022-08-07T00:34:50;9.90;99.90
25985;DHT22;40000;53.848;10.658;2022-08-07T00:39:51;9.80;99.90
25985;DHT22;40000;53.848;10.658;2022-08-07T00:44:55;9.70;99.90
25985;DHT22;40000;53.848;10.658;2022-08-07T00:49:56;9.70;99.90
25985;DHT22;40000;53.848;10.658;2022-08-07T00:54:57;9.60;99.90
25985;DHT22;40000;53.848;10.658;2022-08-07T00:59:57;9.60;99.90
25985;DHT22;40000;53.848;10.658;2022-08-07T01:04:58;9.60;99.90
25985;DHT22;40000;53.848;10.658;2022-08-07T01:10:07;9.50;99.90
25985;DHT22;40000;53.848;10.658;2022-08-07T01:15:10;9.40;99.90
25985;DHT22;40000;53.848;10.658;2022-08-07T01:20:12;9.40;99.90
25985;DHT22;40000;53.848;10.658;2022-08-07T01:25:13;9.30;99.90
25985;DHT22;40000;53.848;10.658;2022-08-07T01:30:16;9.20;99.90
25985;DHT22;40000;53.848;10.658;2022-08-07T01:35:17;9.20;99.90
25985;DHT22;40000;53.848;10.658;2022-08-07T01:40:19;9.20;99.90
25985;DHT22;40000;53.848;10.658;2022-08-07T01:45:21;9.20;99.90
25985;DHT22;40000;53.848;10.658;2022-08-07T01:50:22;9.10;99.90
25985;DHT22;40000;53.848;10.658;2022-08-07T01:55:26;9.10;99.90
25985;DHT22;40000;53.848;10.658;2022-08-07T02:00:29;9.10;99.90
25985;DHT22;40000;53.848;10.658;2022-08-07T02:05:34;9.00;99.90
25985;DHT22;40000;53.848;10.658;2022-08-07T02:10:39;9.00;99.90
25985;DHT22;40000;53.848;10.658;2022-08-07T02:15:41;8.90;99.90
25985;DHT22;40000;53.848;10.658;2022-08-07T02:20:44;8.90;99.90
25985;DHT22;40000;53.848;10.658;2022-08-07T02:25:46;8.90;99.90
25985;DHT22;40000;53.848;10.658;2022-08-07T02:30:49;8.80;99.90
25985;DHT22;40000;53.848;10.658;2022-08-07T02:35:51;8.70;99.90
25985;DHT22;40000;53.848;10.658;2022-08-07T02:40:55;8.70;99.90
25985;DHT22;40000;53.848;10.658;2022-08-07T02:45:57;8.60;99.90
25985;DHT22;40000;53.848;10.658;2022-08-07T02:51:04;8.60;99.90
25985;DHT22;40000;53.848;10.658;2022-08-07T02:56:11;8.60;99.90
25985;DHT22;40000;53.848;10.658;2022-08-07T03:01:15;8.60;99.90
25985;DHT22;40000;53.848;10.658;2022-08-07T03:06:18;8.50;99.90
25985;DHT22;40000;53.848;10.658;2022-08-07T03:11:20;8.50;99.90
25985;DHT22;40000;53.848;10.658;2022-08-07T03:16:22;8.50;99.90
25985;DHT22;40000;53.848;10.658;2022-08-07T03:21:24;8.40;99.90
25985;DHT22;40000;53.848;10.658;2022-08-07T03:26:29;8.40;99.90
25985;DHT22;40000;53.848;10.658;2022-08-07T03:31:33;8.30;99.90
25985;DHT22;40000;53.848;10.658;2022-08-07T03:36:37;8.30;99.90
25985;DHT22;40000;53.848;10.658;2022-08-07T03:41:39;8.40;99.90
25985;DHT22;40000;53.848;10.658;2022-08-07T03:46:41;8.30;99.90
25985;DHT22;40000;53.848;10.658;2022-08-07T03:51:42;8.30;99.90
25985;DHT22;40000;53.848;10.658;2022-08-07T03:56:45;8.30;99.90
25985;DHT22;40000;53.848;10.658;2022-08-07T04:01:46;8.30;99.90
25985;DHT22;40000;53.848;10.658;2022-08-07T04:06:48;8.40;99.90
25985;DHT22;40000;53.848;10.658;2022-08-07T04:11:50;8.40;99.90
25985;DHT22;40000;53.848;10.658;2022-08-07T04:16:52;8.40;99.90
25985;DHT22;40000;53.848;10.658;2022-08-07T04:21:54;8.50;99.90
25985;DHT22;40000;53.848;10.658;2022-08-07T04:26:55;8.60;99.90
25985;DHT22;40000;53.848;10.658;2022-08-07T04:31:58;8.60;99.90
25985;DHT22;40000;53.848;10.658;2022-08-07T04:37:00;8.70;99.90
25985;DHT22;40000;53.848;10.658;2022-08-07T04:42:02;8.80;99.90
25985;DHT22;40000;53.848;10.658;2022-08-07T04:53:04;9.10;99.90
25985;DHT22;40000;53.848;10.658;2022-08-07T05:03:48;9.40;99.90
25985;DHT22;40000;53.848;10.658;2022-08-07T05:14:36;9.80;99.90
25985;DHT22;40000;53.848;10.658;2022-08-07T05:19:43;10.10;99.90
25985;DHT22;40000;53.848;10.658;2022-08-07T05:24:47;10.30;99.90
25985;DHT22;40000;53.848;10.658;2022-08-07T05:29:51;10.60;99.90
25985;DHT22;40000;53.848;10.658;2022-08-07T05:34:52;10.80;99.90
25985;DHT22;40000;53.848;10.658;2022-08-07T05:39:54;11.10;99.90
25985;DHT22;40000;53.848;10.658;2022-08-07T05:44:56;11.50;99.90
25985;DHT22;40000;53.848;10.658;2022-08-07T05:49:57;11.90;99.90
25985;DHT22;40000;53.848;10.658;2022-08-07T05:55:00;12.30;99.90
25985;DHT22;40000;53.848;10.658;2022-08-07T06:00:03;12.60;99.90
25985;DHT22;40000;53.848;10.658;2022-08-07T06:05:10;13.00;99.90
25985;DHT22;40000;53.848;10.658;2022-08-07T06:10:12;13.40;99.90
25985;DHT22;40000;53.848;10.658;2022-08-07T06:15:14;13.80;99.90
25985;DHT22;40000;53.848;10.658;2022-08-07T06:20:15;14.20;99.90
25985;DHT22;40000;53.848;10.658;2022-08-07T06:25:17;14.60;99.90
25985;DHT22;40000;53.848;10.658;2022-08-07T06:30:18;14.90;99.90
25985;DHT22;40000;53.848;10.658;2022-08-07T06:35:19;15.20;99.90
25985;DHT22;40000;53.848;10.658;2022-08-07T06:40:20;15.50;99.90
25985;DHT22;40000;53.848;10.658;2022-08-07T06:45:22;15.80;99.90
25985;DHT22;40000;53.848;10.658;2022-08-07T06:50:24;16.10;99.90
25985;DHT22;40000;53.848;10.658;2022-08-07T06:55:28;16.40;99.90
25985;DHT22;40000;53.848;10.658;2022-08-07T07:00:33;16.60;99.90
25985;DHT22;40000;53.848;10.658;2022-08-07T07:05:36;16.90;99.90
25985;DHT22;40000;53.848;10.658;2022-08-07T07:10:38;17.20;99.90
25985;DHT22;40000;53.848;10.658;2022-08-07T07:15:43;17.40;99.90
25985;DHT22;40000;53.848;10.658;2022-08-07T07:20:52;17.60;99.90
25985;DHT22;40000;53.848;10.658;2022-08-07T07:25:59;17.90;99.90
25985;DHT22;40000;53.848;10.658;2022-08-07T07:31:15;18.10;99.90
25985;DHT22;40000;53.848;10.658;2022-08-07T07:36:27;18.30;99.90
25985;DHT22;40000;53.848;10.658;2022-08-07T07:41:32;18.50;99.90
25985;DHT22;40000;53.848;10.658;2022-08-07T07:46:36;18.80;99.90
25985;DHT22;40000;53.848;10.658;2022-08-07T07:51:41;18.90;99.90
25985;DHT22;40000;53.848;10.658;2022-08-07T07:56:44;19.10;99.90
25985;DHT22;40000;53.848;10.658;2022-08-07T08:01:47;19.40;99.90
25985;DHT22;40000;53.848;10.658;2022-08-07T08:06:49;19.40;99.90
25985;DHT22;40000;53.848;10.658;2022-08-07T08:11:51;19.60;99.90
25985;DHT22;40000;53.848;10.658;2022-08-07T08:16:53;19.80;99.90
25985;DHT22;40000;53.848;10.658;2022-08-07T08:21:57;19.80;99.90
25985;DHT22;40000;53.848;10.658;2022-08-07T08:27:18;19.90;99.90
25985;DHT22;40000;53.848;10.658;2022-08-07T08:32:23;20.00;99.90
25985;DHT22;40000;53.848;10.658;2022-08-07T08:37:27;20.20;99.90
25985;DHT22;40000;53.848;10.658;2022-08-07T08:42:43;20.30;99.90
25985;DHT22;40000;53.848;10.658;2022-08-07T08:53:29;20.50;99.90
25985;DHT22;40000;53.848;10.658;2022-08-07T08:58:49;20.40;99.90
25985;DHT22;40000;53.848;10.658;2022-08-07T09:25:34;20.90;99.90
25985;DHT22;40000;53.848;10.658;2022-08-07T09:30:58;21.10;99.90
25985;DHT22;40000;53.848;10.658;2022-08-07T09:36:21;21.30;99.90
25985;DHT22;40000;53.848;10.658;2022-08-07T10:14:51;21.70;99.90
25985;DHT22;40000;53.848;10.658;2022-08-07T10:36:27;22.00;99.90
25985;DHT22;40000;53.848;10.658;2022-08-07T10:42:04;22.20;99.90
25985;DHT22;40000;53.848;10.658;2022-08-07T10:58:08;22.60;99.90
25985;DHT22;40000;53.848;10.658;2022-08-07T11:03:38;23.00;99.50
25985;DHT22;40000;53.848;10.658;2022-08-07T11:08:48;23.00;98.60
25985;DHT22;40000;53.848;10.658;2022-08-07T11:14:19;22.80;99.40
25985;DHT22;40000;53.848;10.658;2022-08-07T11:19:28;22.90;98.40
25985;DHT22;40000;53.848;10.658;2022-08-07T11:24:38;22.70;94.70
25985;DHT22;40000;53.848;10.658;2022-08-07T11:30:09;22.70;96.20
25985;DHT22;40000;53.848;10.658;2022-08-07T11:35:42;23.00;95.90
25985;DHT22;40000;53.848;10.658;2022-08-07T11:40:56;23.40;95.80
25985;DHT22;40000;53.848;10.658;2022-08-07T11:57:04;24.50;94.50
25985;DHT22;40000;53.848;10.658;2022-08-07T12:08:13;24.60;89.60
25985;DHT22;40000;53.848;10.658;2022-08-07T12:18:34;24.60;90.10
25985;DHT22;40000;53.848;10.658;2022-08-07T12:23:39;24.60;90.30
25985;DHT22;40000;53.848;10.658;2022-08-07T12:29:15;24.70;89.00
25985;DHT22;40000;53.848;10.658;2022-08-07T12:34:19;24.70;85.10
25985;DHT22;40000;53.848;10.658;2022-08-07T12:39:22;25.10;86.70
25985;DHT22;40000;53.848;10.658;2022-08-07T12:44:25;24.90;88.00
25985;DHT22;40000;53.848;10.658;2022-08-07T13:00:53;25.70;80.70
25985;DHT22;40000;53.848;10.658;2022-08-07T13:12:09;25.70;85.20
25985;DHT22;40000;53.848;10.658;2022-08-07T13:17:31;25.70;81.70
25985;DHT22;40000;53.848;10.658;2022-08-07T13:22:38;25.10;79.90
25985;DHT22;40000;53.848;10.658;2022-08-07T13:28:02;25.00;84.90
25985;DHT22;40000;53.848;10.658;2022-08-07T13:33:32;25.10;81.30
25985;DHT22;40000;53.848;10.658;2022-08-07T13:38:41;25.10;82.80
25985;DHT22;40000;53.848;10.658;2022-08-07T13:44:04;25.20;81.80
25985;DHT22;40000;53.848;10.658;2022-08-07T13:49:07;25.40;87.00
25985;DHT22;40000;53.848;10.658;2022-08-07T13:54:11;25.90;83.10
25985;DHT22;40000;53.848;10.658;2022-08-07T13:59:19;26.00;82.50
25985;DHT22;40000;53.848;10.658;2022-08-07T14:04:24;25.70;75.20
25985;DHT22;40000;53.848;10.658;2022-08-07T14:09:28;25.70;71.80
25985;DHT22;40000;53.848;10.658;2022-08-07T14:14:41;25.50;75.60
25985;DHT22;40000;53.848;10.658;2022-08-07T14:25:27;25.40;78.30
25985;DHT22;40000;53.848;10.658;2022-08-07T14:30:31;25.40;72.80
25985;DHT22;40000;53.848;10.658;2022-08-07T14:35:35;25.00;70.90
25985;DHT22;40000;53.848;10.658;2022-08-07T14:40:36;25.30;78.10
25985;DHT22;40000;53.848;10.658;2022-08-07T14:45:45;24.80;80.40
25985;DHT22;40000;53.848;10.658;2022-08-07T14:50:57;24.70;80.70
25985;DHT22;40000;53.848;10.658;2022-08-07T14:56:08;24.60;83.20
25985;DHT22;40000;53.848;10.658;2022-08-07T15:01:11;24.70;82.00
25985;DHT22;40000;53.848;10.658;2022-08-07T15:06:22;24.60;80.80
25985;DHT22;40000;53.848;10.658;2022-08-07T15:11:25;24.50;82.50
25985;DHT22;40000;53.848;10.658;2022-08-07T15:16:37;24.60;83.60
25985;DHT22;40000;53.848;10.658;2022-08-07T15:21:50;24.70;81.80
25985;DHT22;40000;53.848;10.658;2022-08-07T15:27:02;25.00;82.20
25985;DHT22;40000;53.848;10.658;2022-08-07T15:32:11;24.90;82.50
25985;DHT22;40000;53.848;10.658;2022-08-07T15:37:14;24.80;82.60
25985;DHT22;40000;53.848;10.658;2022-08-07T15:47:49;24.10;86.00
25985;DHT22;40000;53.848;10.658;2022-08-07T15:53:25;24.20;87.10
25985;DHT22;40000;53.848;10.658;2022-08-07T15:58:36;24.30;84.50
25985;DHT22;40000;53.848;10.658;2022-08-07T16:03:43;24.20;87.30
25985;DHT22;40000;53.848;10.658;2022-08-07T16:08:46;24.20;88.80
25985;DHT22;40000;53.848;10.658;2022-08-07T16:13:53;24.20;88.00
25985;DHT22;40000;53.848;10.658;2022-08-07T16:25:02;24.10;84.00
25985;DHT22;40000;53.848;10.658;2022-08-07T16:30:12;23.90;83.50
25985;DHT22;40000;53.848;10.658;2022-08-07T16:35:36;27.20;81.00
25985;DHT22;40000;53.848;10.658;2022-08-07T17:02:35;27.70;64.00
25985;DHT22;40000;53.848;10.658;2022-08-07T17:07:53;29.20;62.50
25985;DHT22;40000;53.848;10.658;2022-08-07T17:23:55;27.20;65.80
25985;DHT22;40000;53.848;10.658;2022-08-07T17:29:20;31.00;61.70
25985;DHT22;40000;53.848;10.658;2022-08-07T17:34:47;32.90;54.70
25985;DHT22;40000;53.848;10.658;2022-08-07T17:40:09;32.10;54.00
25985;DHT22;40000;53.848;10.658;2022-08-07T17:45:20;30.10;58.70
25985;DHT22;40000;53.848;10.658;2022-08-07T17:50:39;27.40;65.60
25985;DHT22;40000;53.848;10.658;2022-08-07T17:56:02;24.60;74.70
25985;DHT22;40000;53.848;10.658;2022-08-07T18:01:25;23.60;81.00
25985;DHT22;40000;53.848;10.658;2022-08-07T18:17:51;24.40;82.00
25985;DHT22;40000;53.848;10.658;2022-08-07T18:23:33;25.10;79.70
25985;DHT22;40000;53.848;10.658;2022-08-07T18:29:06;23.20;85.00
25985;DHT22;40000;53.848;10.658;2022-08-07T18:45:19;21.20;92.80
25985;DHT22;40000;53.848;10.658;2022-08-07T19:01:37;20.00;99.50
25985;DHT22;40000;53.848;10.658;2022-08-07T19:12:19;19.40;99.90
25985;DHT22;40000;53.848;10.658;2022-08-07T19:17:24;19.00;99.90
25985;DHT22;40000;53.848;10.658;2022-08-07T19:23:02;18.70;99.90
25985;DHT22;40000;53.848;10.658;2022-08-07T19:28:12;18.40;99.90
25985;DHT22;40000;53.848;10.658;2022-08-07T19:33:18;18.20;99.90
25985;DHT22;40000;53.848;10.658;2022-08-07T19:38:20;17.90;99.90
25985;DHT22;40000;53.848;10.658;2022-08-07T19:43:28;17.60;99.90
25985;DHT22;40000;53.848;10.658;2022-08-07T19:48:48;17.20;99.90
25985;DHT22;40000;53.848;10.658;2022-08-07T19:53:56;16.90;99.90
25985;DHT22;40000;53.848;10.658;2022-08-07T19:58:59;16.60;99.90
25985;DHT22;40000;53.848;10.658;2022-08-07T20:04:02;16.40;99.90
25985;DHT22;40000;53.848;10.658;2022-08-07T20:09:04;16.20;99.90
25985;DHT22;40000;53.848;10.658;2022-08-07T20:14:06;16.10;99.90
25985;DHT22;40000;53.848;10.658;2022-08-07T20:19:10;15.90;99.90
25985;DHT22;40000;53.848;10.658;2022-08-07T20:24:17;15.70;99.90
25985;DHT22;40000;53.848;10.658;2022-08-07T20:29:24;15.60;99.90
25985;DHT22;40000;53.848;10.658;2022-08-07T20:34:32;15.50;99.90
25985;DHT22;40000;53.848;10.658;2022-08-07T20:39:35;15.30;99.90
25985;DHT22;40000;53.848;10.658;2022-08-07T20:44:41;15.30;99.90
25985;DHT22;40000;53.848;10.658;2022-08-07T20:49:43;15.10;99.90
25985;DHT22;40000;53.848;10.658;2022-08-07T20:54:52;14.90;99.90
25985;DHT22;40000;53.848;10.658;2022-08-07T20:59:58;14.80;99.90
25985;DHT22;40000;53.848;10.658;2022-08-07T21:05:08;14.70;99.90
25985;DHT22;40000;53.848;10.658;2022-08-07T21:10:17;14.60;99.90
25985;DHT22;40000;53.848;10.658;2022-08-07T21:15:22;14.50;99.90
25985;DHT22;40000;53.848;10.658;2022-08-07T21:20:24;14.40;99.90
25985;DHT22;40000;53.848;10.658;2022-08-07T21:25:35;14.30;99.90
25985;DHT22;40000;53.848;10.658;2022-08-07T21:30:56;14.20;99.90
25985;DHT22;40000;53.848;10.658;2022-08-07T21:36:16;14.10;99.90
25985;DHT22;40000;53.848;10.658;2022-08-07T21:41:43;14.00;99.90
25985;DHT22;40000;53.848;10.658;2022-08-07T21:46:53;13.90;99.90
25985;DHT22;40000;53.848;10.658;2022-08-07T21:52:26;13.80;99.90
25985;DHT22;40000;53.848;10.658;2022-08-07T22:03:36;13.60;99.90
25985;DHT22;40000;53.848;10.658;2022-08-07T22:08:54;13.50;99.90
25985;DHT22;40000;53.848;10.658;2022-08-07T22:13:59;13.40;99.90
25985;DHT22;40000;53.848;10.658;2022-08-07T22:24:42;13.20;99.90
25985;DHT22;40000;53.848;10.658;2022-08-07T22:35:10;13.10;99.90
25985;DHT22;40000;53.848;10.658;2022-08-07T22:40:27;13.00;99.90
25985;DHT22;40000;53.848;10.658;2022-08-07T22:56:59;12.70;99.90
25985;DHT22;40000;53.848;10.658;2022-08-07T23:03:08;12.60;99.90
25985;DHT22;40000;53.848;10.658;2022-08-07T23:08:33;12.60;99.90
25985;DHT22;40000;53.848;10.658;2022-08-07T23:14:11;12.60;99.90
25985;DHT22;40000;53.848;10.658;2022-08-07T23:19:57;12.50;99.90
25985;DHT22;40000;53.848;10.658;2022-08-07T23:57:54;12.70;99.90
